createdAt,value
2019-01-20T00:01:59.277Z,99.90
2019-01-20T00:04:28.977Z,99.90
2019-01-20T00:06:59.365Z,99.90
2019-01-20T00:09:32.453Z,99.90
2019-01-20T00:12:02.561Z,99.90
2019-01-20T00:14:31.924Z,99.90
2019-01-20T00:17:01.529Z,99.90
2019-01-20T00:19:31.316Z,99.90
2019-01-20T00:22:00.967Z,99.90
2019-01-20T00:24:32.566Z,99.90
2019-01-20T00:27:01.898Z,99.90
2019-01-20T00:29:31.368Z,99.90
2019-01-20T00:32:01.263Z,99.90
2019-01-20T00:34:31.110Z,99.90
2019-01-20T00:37:00.911Z,99.90
2019-01-20T00:39:30.315Z,99.90
2019-01-20T00:41:59.701Z,99.90
2019-01-20T00:44:29.810Z,99.90
2019-01-20T00:46:59.598Z,99.90
2019-01-20T00:49:31.929Z,99.90
2019-01-20T00:52:02.321Z,99.90
2019-01-20T00:54:35.821Z,99.90
2019-01-20T00:57:05.716Z,99.90
2019-01-20T00:59:35.433Z,99.90
2019-01-20T01:02:05.893Z,99.90
2019-01-20T01:04:35.605Z,99.90
2019-01-20T01:07:24.427Z,99.90
2019-01-20T01:09:56.768Z,99.90
2019-01-20T01:12:29.374Z,99.90
2019-01-20T01:15:01.075Z,99.90
2019-01-20T01:17:30.504Z,99.90
2019-01-20T01:20:02.971Z,99.90
2019-01-20T01:22:33.326Z,99.90
2019-01-20T01:25:03.723Z,99.90
2019-01-20T01:27:33.113Z,99.90
2019-01-20T01:30:02.504Z,99.90
2019-01-20T01:32:31.933Z,99.90
2019-01-20T01:35:01.421Z,99.90
2019-01-20T01:37:32.136Z,99.90
2019-01-20T01:40:01.517Z,99.90
2019-01-20T01:42:30.917Z,99.90
2019-01-20T01:45:05.298Z,99.90
2019-01-20T01:47:35.339Z,99.90
2019-01-20T01:50:06.059Z,99.90
2019-01-20T01:52:36.042Z,99.90
2019-01-20T01:55:06.108Z,99.90
2019-01-20T01:57:37.373Z,99.90
2019-01-20T02:00:11.784Z,99.90
2019-01-20T02:02:41.505Z,99.90
2019-01-20T02:05:11.570Z,99.90
2019-01-20T02:07:41.293Z,99.90
2019-01-20T02:10:13.676Z,99.90
2019-01-20T02:12:43.149Z,99.90
2019-01-20T02:15:13.855Z,99.90
2019-01-20T02:17:43.926Z,99.90
2019-01-20T02:20:16.274Z,99.90
2019-01-20T02:22:45.796Z,99.90
2019-01-20T02:25:15.833Z,99.90
2019-01-20T02:27:45.420Z,99.90
2019-01-20T02:30:21.897Z,99.90
2019-01-20T02:32:51.798Z,99.90
2019-01-20T02:35:21.191Z,99.90
2019-01-20T02:37:50.600Z,99.90
2019-01-20T02:40:20.377Z,99.90
2019-01-20T02:42:49.758Z,99.90
2019-01-20T02:45:19.306Z,99.90
2019-01-20T02:47:48.847Z,99.90
2019-01-20T02:50:19.109Z,99.90
2019-01-20T02:52:48.775Z,99.90
2019-01-20T02:55:18.649Z,99.90
2019-01-20T02:57:49.365Z,99.90
2019-01-20T03:00:21.578Z,99.90
2019-01-20T03:02:51.988Z,99.90
2019-01-20T03:05:23.033Z,99.90
2019-01-20T03:07:56.651Z,99.90
2019-01-20T03:10:26.744Z,99.90
2019-01-20T03:12:56.754Z,99.90
2019-01-20T03:15:32.674Z,99.90
2019-01-20T03:18:02.316Z,99.90
2019-01-20T03:20:32.060Z,99.90
2019-01-20T03:23:05.305Z,99.90
2019-01-20T03:25:35.107Z,99.90
2019-01-20T03:28:05.398Z,99.90
2019-01-20T03:30:34.731Z,99.90
2019-01-20T03:33:05.528Z,99.90
2019-01-20T03:35:34.908Z,99.90
2019-01-20T03:38:05.356Z,99.90
2019-01-20T03:40:35.813Z,99.90
2019-01-20T03:43:05.361Z,99.90
2019-01-20T03:45:35.563Z,99.90
2019-01-20T03:48:06.169Z,99.90
2019-01-20T03:50:35.588Z,99.90
2019-01-20T03:53:04.975Z,99.90
2019-01-20T03:55:35.175Z,99.90
2019-01-20T03:58:04.581Z,99.90
2019-01-20T04:00:33.992Z,99.90
2019-01-20T04:03:04.614Z,99.90
2019-01-20T04:05:34.868Z,99.90
2019-01-20T04:08:05.896Z,99.90
2019-01-20T04:10:35.927Z,99.90
2019-01-20T04:13:05.417Z,99.90
2019-01-20T04:17:56.064Z,99.90
2019-01-20T04:20:25.616Z,99.90
2019-01-20T04:22:54.988Z,99.90
2019-01-20T04:25:25.214Z,99.90
2019-01-20T04:27:54.957Z,99.90
2019-01-20T04:30:24.360Z,99.90
2019-01-20T04:32:53.962Z,99.90
2019-01-20T04:35:23.364Z,99.90
2019-01-20T04:37:52.771Z,99.90
2019-01-20T04:40:23.841Z,99.90
2019-01-20T04:43:12.293Z,99.90
2019-01-20T04:45:41.707Z,99.90
2019-01-20T04:48:11.486Z,99.90
2019-01-20T04:50:42.103Z,99.90
2019-01-20T04:53:11.897Z,99.90
2019-01-20T04:55:41.282Z,99.90
2019-01-20T04:58:11.086Z,99.90
2019-01-20T05:00:40.507Z,99.90
2019-01-20T05:03:09.890Z,99.90
2019-01-20T05:05:39.294Z,99.90
2019-01-20T05:08:08.716Z,99.90
2019-01-20T05:10:38.452Z,99.90
2019-01-20T05:13:09.011Z,99.90
2019-01-20T05:15:39.035Z,99.90
2019-01-20T05:18:08.689Z,99.90
2019-01-20T05:20:38.081Z,99.90
2019-01-20T05:23:07.508Z,99.90
2019-01-20T05:25:36.890Z,99.90
2019-01-20T05:28:06.276Z,99.90
2019-01-20T05:30:36.013Z,99.90
2019-01-20T05:33:05.403Z,99.90
2019-01-20T05:35:34.881Z,99.90
2019-01-20T05:38:04.802Z,99.90
2019-01-20T05:40:34.280Z,99.90
2019-01-20T05:43:04.051Z,99.90
2019-01-20T05:45:33.591Z,99.90
2019-01-20T05:48:03.329Z,99.90
2019-01-20T05:50:33.719Z,99.90
2019-01-20T05:53:06.388Z,99.90
2019-01-20T05:55:36.173Z,99.90
2019-01-20T05:58:07.437Z,99.90
2019-01-20T06:00:37.718Z,99.90
2019-01-20T06:03:11.828Z,99.90
2019-01-20T06:05:43.089Z,99.90
2019-01-20T06:08:12.970Z,99.90
2019-01-20T06:10:42.360Z,99.90
2019-01-20T06:13:11.766Z,99.90
2019-01-20T06:15:41.193Z,99.90
2019-01-20T06:18:11.193Z,99.90
2019-01-20T06:20:40.648Z,99.90
2019-01-20T06:23:10.075Z,99.90
2019-01-20T06:25:40.722Z,99.90
2019-01-20T06:28:14.145Z,99.90
2019-01-20T06:30:44.261Z,99.90
2019-01-20T06:33:13.645Z,99.90
2019-01-20T06:35:43.893Z,99.90
2019-01-20T06:38:16.535Z,99.90
2019-01-20T06:40:46.971Z,99.90
2019-01-20T06:43:17.184Z,99.90
2019-01-20T06:45:46.993Z,99.90
2019-01-20T06:48:25.064Z,99.90
2019-01-20T06:50:55.624Z,99.90
2019-01-20T06:53:25.040Z,99.90
2019-01-20T06:55:54.440Z,99.90
2019-01-20T06:58:24.944Z,99.90
2019-01-20T07:00:55.004Z,99.90
2019-01-20T07:03:24.624Z,99.90
2019-01-20T07:05:54.339Z,99.90
2019-01-20T07:08:24.228Z,99.90
2019-01-20T07:10:53.732Z,99.90
2019-01-20T07:13:23.688Z,99.90
2019-01-20T07:15:53.192Z,99.90
2019-01-20T07:18:22.625Z,99.90
2019-01-20T07:20:52.546Z,99.90
2019-01-20T07:23:22.312Z,99.90
2019-01-20T07:25:51.632Z,99.90
2019-01-20T07:28:21.169Z,99.90
2019-01-20T07:30:50.670Z,99.90
2019-01-20T07:33:20.123Z,99.90
2019-01-20T07:35:51.947Z,99.90
2019-01-20T07:38:22.037Z,99.90
2019-01-20T07:40:51.563Z,99.90
2019-01-20T07:43:21.161Z,99.90
2019-01-20T07:45:51.195Z,99.90
2019-01-20T07:48:20.600Z,99.90
2019-01-20T07:50:50.046Z,99.90
2019-01-20T07:53:21.441Z,99.90
2019-01-20T07:55:51.012Z,99.90
2019-01-20T07:58:20.472Z,99.90
2019-01-20T08:00:49.891Z,99.90
2019-01-20T08:03:20.409Z,99.90
2019-01-20T08:05:49.795Z,99.90
2019-01-20T08:08:25.995Z,99.90
2019-01-20T08:10:55.777Z,99.90
2019-01-20T08:13:28.699Z,99.90
2019-01-20T08:15:59.948Z,99.90
2019-01-20T08:18:30.674Z,99.90
2019-01-20T08:21:00.020Z,99.90
2019-01-20T08:23:33.144Z,99.90
2019-01-20T08:26:02.593Z,99.90
2019-01-20T08:28:35.051Z,99.90
2019-01-20T08:31:06.480Z,99.90
2019-01-20T08:33:38.034Z,99.90
2019-01-20T08:36:08.996Z,99.90
2019-01-20T08:38:40.249Z,99.90
2019-01-20T08:41:10.984Z,99.90
2019-01-20T08:43:40.866Z,99.90
2019-01-20T08:46:50.228Z,99.90
2019-01-20T08:49:20.387Z,99.90
2019-01-20T08:51:49.842Z,99.90
2019-01-20T08:54:23.141Z,99.90
2019-01-20T08:56:52.530Z,99.90
2019-01-20T08:59:21.904Z,99.90
2019-01-20T09:01:51.333Z,97.10
2019-01-20T09:04:22.673Z,94.10
2019-01-20T09:06:52.036Z,90.70
2019-01-20T09:09:22.521Z,83.10
2019-01-20T09:11:53.264Z,80.00
2019-01-20T09:14:23.291Z,73.10
2019-01-20T09:16:53.590Z,69.60
2019-01-20T09:19:22.997Z,59.60
2019-01-20T09:21:52.449Z,56.00
2019-01-20T09:24:26.425Z,54.00
2019-01-20T09:26:55.846Z,51.40
2019-01-20T09:29:25.237Z,51.70
2019-01-20T09:31:55.526Z,54.40
2019-01-20T09:34:27.253Z,53.70
2019-01-20T09:36:58.352Z,54.80
2019-01-20T09:39:30.560Z,57.70
2019-01-20T09:42:00.478Z,59.20
2019-01-20T09:44:29.804Z,64.00
2019-01-20T09:47:01.190Z,70.30
2019-01-20T09:49:31.051Z,72.20
2019-01-20T09:52:00.548Z,70.80
2019-01-20T09:54:29.977Z,72.00
2019-01-20T09:56:59.369Z,70.70
2019-01-20T09:59:28.813Z,70.50
2019-01-20T10:01:58.715Z,72.50
2019-01-20T10:04:28.043Z,72.10
2019-01-20T10:06:57.408Z,73.20
2019-01-20T10:09:27.482Z,75.30
2019-01-20T10:11:59.942Z,77.70
2019-01-20T10:14:29.508Z,78.30
2019-01-20T10:16:58.897Z,76.60
2019-01-20T10:19:30.256Z,76.00
2019-01-20T10:21:59.752Z,77.90
2019-01-20T10:24:29.717Z,79.70
2019-01-20T10:26:59.375Z,81.50
2019-01-20T10:29:28.787Z,81.60
2019-01-20T10:31:58.558Z,84.50
2019-01-20T10:34:29.402Z,86.50
2019-01-20T10:37:00.031Z,90.40
2019-01-20T10:39:30.988Z,91.70
2019-01-20T10:42:00.373Z,92.80
2019-01-20T10:44:30.348Z,95.30
2019-01-20T10:46:59.765Z,96.90
2019-01-20T10:49:29.170Z,98.20
2019-01-20T10:51:59.503Z,99.50
2019-01-20T10:54:31.619Z,99.90
2019-01-20T10:57:00.977Z,99.90
2019-01-20T10:59:30.366Z,99.90
2019-01-20T11:02:00.445Z,99.90
2019-01-20T11:04:32.677Z,99.90
2019-01-20T11:07:02.126Z,99.90
2019-01-20T11:09:31.541Z,99.90
2019-01-20T11:12:01.055Z,99.90
2019-01-20T11:14:30.452Z,99.90
2019-01-20T11:17:00.160Z,99.90
2019-01-20T11:19:29.557Z,99.90
2019-01-20T11:21:59.525Z,99.90
2019-01-20T11:24:29.453Z,99.90
2019-01-20T11:26:58.838Z,99.90
2019-01-20T11:29:28.682Z,99.90
2019-01-20T11:31:58.197Z,99.90
2019-01-20T11:34:28.198Z,99.90
2019-01-20T11:36:58.108Z,99.90
2019-01-20T11:39:28.061Z,99.90
2019-01-20T11:41:57.377Z,99.90
2019-01-20T11:44:28.515Z,99.90
2019-01-20T11:46:58.057Z,99.90
2019-01-20T11:49:27.843Z,99.90
2019-01-20T11:51:59.079Z,99.90
2019-01-20T11:54:28.489Z,99.90
2019-01-20T11:56:57.886Z,99.90
2019-01-20T11:59:28.675Z,99.90
2019-01-20T12:01:59.513Z,99.90
2019-01-20T12:04:29.275Z,99.90
2019-01-20T12:06:59.453Z,99.90
2019-01-20T12:09:29.474Z,99.90
2019-01-20T12:11:58.845Z,99.90
2019-01-20T12:14:28.241Z,99.90
2019-01-20T12:16:57.660Z,99.90
2019-01-20T12:19:29.255Z,99.90
2019-01-20T12:21:59.365Z,99.90
2019-01-20T12:24:29.217Z,99.90
2019-01-20T12:26:58.596Z,99.90
2019-01-20T12:29:29.331Z,99.90
2019-01-20T12:31:59.782Z,99.90
2019-01-20T12:34:29.113Z,99.90
2019-01-20T12:36:58.973Z,99.90
2019-01-20T12:39:28.393Z,99.90
2019-01-20T12:41:57.778Z,99.90
2019-01-20T12:44:31.369Z,99.90
2019-01-20T12:46:58.698Z,99.90
2019-01-20T12:49:28.678Z,99.90
2019-01-20T12:51:58.083Z,99.90
2019-01-20T12:54:27.582Z,99.90
2019-01-20T12:56:56.972Z,99.90
2019-01-20T12:59:26.356Z,99.90
2019-01-20T13:01:56.400Z,99.90
2019-01-20T13:04:25.858Z,99.90
2019-01-20T13:06:55.593Z,99.90
2019-01-20T13:09:25.398Z,99.90
2019-01-20T13:11:54.783Z,99.90
2019-01-20T13:14:24.180Z,99.90
2019-01-20T13:16:53.716Z,99.90
2019-01-20T13:19:23.100Z,99.90
2019-01-20T13:21:53.381Z,99.90
2019-01-20T13:24:23.213Z,99.90
2019-01-20T13:26:54.301Z,99.90
2019-01-20T13:29:23.782Z,99.90
2019-01-20T13:31:53.802Z,99.90
2019-01-20T13:34:23.185Z,99.90
2019-01-20T13:36:55.233Z,99.90
2019-01-20T13:39:29.243Z,99.90
2019-01-20T13:41:58.296Z,99.90
2019-01-20T13:44:29.413Z,99.90
2019-01-20T13:46:59.673Z,99.90
2019-01-20T13:49:31.024Z,99.90
2019-01-20T13:52:00.444Z,99.90
2019-01-20T13:54:30.009Z,99.90
2019-01-20T13:56:59.509Z,99.90
2019-01-20T13:59:29.042Z,99.90
2019-01-20T14:01:58.478Z,99.90
2019-01-20T14:04:28.676Z,99.90
2019-01-20T14:06:59.121Z,99.90
2019-01-20T14:09:32.079Z,99.90
2019-01-20T14:12:01.538Z,99.90
2019-01-20T14:14:32.788Z,99.90
2019-01-20T14:17:02.270Z,99.90
2019-01-20T14:19:33.462Z,99.90
2019-01-20T14:22:02.879Z,99.90
2019-01-20T14:24:33.444Z,99.90
2019-01-20T14:27:16.267Z,99.90
2019-01-20T14:30:10.405Z,99.90
2019-01-20T14:33:47.277Z,99.90
2019-01-20T14:36:56.259Z,99.90
2019-01-20T14:40:10.420Z,99.90
2019-01-20T15:05:41.681Z,99.90
2019-01-20T15:46:38.584Z,99.90
2019-01-20T16:27:10.327Z,99.90
2019-01-20T16:41:17.841Z,99.90
2019-01-20T16:44:31.934Z,99.90
2019-01-20T17:49:55.595Z,99.90
2019-01-20T19:00:53.785Z,99.90
2019-01-20T19:56:13.314Z,99.90
2019-01-20T21:33:58.324Z,99.90
2019-01-20T21:57:08.472Z,99.90
2019-01-20T22:39:43.433Z,99.90
2019-01-20T22:44:17.071Z,99.90
2019-01-20T23:13:34.549Z,99.90
2019-01-20T23:25:16.508Z,99.90
2019-01-20T23:37:15.675Z,99.90
2019-01-20T23:52:48.151Z,99.90
